createdAt,value
2024-01-25T00:01:38.971Z,5.82
2024-01-25T00:04:07.048Z,6.43
2024-01-25T00:06:33.938Z,5.32
2024-01-25T00:09:00.411Z,5.90
2024-01-25T00:11:26.886Z,5.95
2024-01-25T00:13:53.358Z,6.13
2024-01-25T00:16:20.094Z,6.18
2024-01-25T00:18:46.769Z,7.20
2024-01-25T00:21:17.370Z,6.57
2024-01-25T00:23:43.801Z,6.40
2024-01-25T00:26:10.266Z,6.40
2024-01-25T00:28:36.673Z,6.40
2024-01-25T00:31:03.284Z,6.03
2024-01-25T00:33:29.933Z,4.88
2024-01-25T00:35:56.917Z,5.63
2024-01-25T00:38:25.376Z,5.95
2024-01-25T00:40:54.290Z,6.45
2024-01-25T00:43:21.314Z,7.38
2024-01-25T00:45:48.387Z,7.22
2024-01-25T00:48:15.447Z,6.40
2024-01-25T00:50:42.593Z,7.45
2024-01-25T00:53:09.934Z,6.35
2024-01-25T00:55:38.486Z,6.07
2024-01-25T00:58:05.783Z,7.00
2024-01-25T01:00:32.759Z,6.05
2024-01-25T01:03:03.928Z,7.57
2024-01-25T01:05:31.129Z,5.95
2024-01-25T01:07:58.162Z,6.95
2024-01-25T01:10:24.716Z,6.38
2024-01-25T01:12:52.593Z,4.90
2024-01-25T01:15:19.217Z,7.25
2024-01-25T01:17:45.761Z,5.60
2024-01-25T01:20:12.707Z,6.07
2024-01-25T01:22:39.267Z,6.22
2024-01-25T01:25:06.017Z,6.97
2024-01-25T01:27:32.581Z,6.75
2024-01-25T01:30:00.405Z,5.40
2024-01-25T01:32:27.020Z,6.05
2024-01-25T01:34:53.689Z,6.38
2024-01-25T01:37:20.392Z,5.72
2024-01-25T01:39:46.965Z,7.60
2024-01-25T01:42:13.391Z,6.30
2024-01-25T01:44:40.420Z,5.28
2024-01-25T01:47:08.807Z,6.10
2024-01-25T01:49:35.693Z,5.38
2024-01-25T01:52:03.016Z,5.78
2024-01-25T01:54:29.836Z,5.15
2024-01-25T01:56:56.763Z,4.95
2024-01-25T01:59:23.407Z,6.93
2024-01-25T02:01:50.039Z,6.35
2024-01-25T02:04:18.422Z,7.05
2024-01-25T02:06:45.230Z,6.88
2024-01-25T02:09:12.294Z,4.82
2024-01-25T02:11:38.750Z,4.88
2024-01-25T02:14:05.150Z,8.30
2024-01-25T02:16:31.850Z,6.32
2024-01-25T02:18:59.505Z,5.95
2024-01-25T02:21:27.781Z,6.65
2024-01-25T02:23:55.777Z,5.75
2024-01-25T02:26:23.100Z,5.47
2024-01-25T02:28:49.564Z,7.13
2024-01-25T02:31:16.359Z,5.18
2024-01-25T02:33:43.024Z,5.63
2024-01-25T02:36:09.558Z,6.90
2024-01-25T02:38:35.987Z,5.95
2024-01-25T02:41:04.057Z,5.78
2024-01-25T02:43:30.455Z,6.30
2024-01-25T02:45:56.927Z,6.20
2024-01-25T02:48:23.430Z,6.47
2024-01-25T02:50:49.977Z,6.32
2024-01-25T02:53:16.688Z,6.78
2024-01-25T02:55:43.115Z,5.95
2024-01-25T02:58:10.901Z,5.22
2024-01-25T03:00:37.426Z,6.28
2024-01-25T03:03:04.230Z,6.03
2024-01-25T03:05:30.852Z,5.45
2024-01-25T03:07:57.705Z,6.10
2024-01-25T03:10:24.312Z,6.15
2024-01-25T03:12:50.775Z,5.25
2024-01-25T03:15:18.767Z,7.05
2024-01-25T03:17:45.213Z,6.13
2024-01-25T03:20:12.108Z,5.55
2024-01-25T03:22:38.725Z,5.32
2024-01-25T03:25:05.708Z,5.03
2024-01-25T03:27:32.291Z,6.28
2024-01-25T03:29:58.817Z,6.53
2024-01-25T03:32:26.660Z,6.05
2024-01-25T03:34:53.156Z,5.05
2024-01-25T03:37:19.904Z,4.30
2024-01-25T03:39:46.468Z,6.38
2024-01-25T03:42:12.903Z,6.25
2024-01-25T03:44:39.359Z,5.97
2024-01-25T03:47:05.882Z,5.28
2024-01-25T03:49:33.678Z,5.88
2024-01-25T03:52:00.319Z,5.95
2024-01-25T03:54:26.727Z,5.15
2024-01-25T03:56:55.100Z,5.53
2024-01-25T03:59:21.569Z,4.90
2024-01-25T04:01:49.211Z,7.20
2024-01-25T04:04:16.595Z,6.15
2024-01-25T04:06:45.624Z,6.32
2024-01-25T04:09:12.394Z,5.45
2024-01-25T04:11:39.135Z,5.80
2024-01-25T04:14:05.890Z,5.88
2024-01-25T04:16:33.058Z,6.45
2024-01-25T04:18:59.584Z,6.10
2024-01-25T04:21:26.163Z,7.13
2024-01-25T04:23:54.276Z,7.90
2024-01-25T04:26:20.677Z,6.60
2024-01-25T04:28:47.161Z,5.43
2024-01-25T04:31:13.625Z,5.95
2024-01-25T04:33:40.785Z,6.72
2024-01-25T04:36:08.209Z,5.40
2024-01-25T04:38:34.635Z,4.80
2024-01-25T04:41:02.376Z,5.25
2024-01-25T04:43:28.949Z,5.60
2024-01-25T04:45:55.424Z,5.38
2024-01-25T04:48:21.947Z,5.75
2024-01-25T04:50:48.399Z,5.47
2024-01-25T04:53:14.816Z,7.07
2024-01-25T04:55:41.234Z,7.00
2024-01-25T04:58:09.047Z,5.22
2024-01-25T05:00:35.546Z,7.13
2024-01-25T05:03:02.013Z,5.32
2024-01-25T05:05:28.471Z,5.13
2024-01-25T05:07:55.002Z,6.18
2024-01-25T05:10:21.576Z,6.20
2024-01-25T05:12:48.215Z,7.32
2024-01-25T05:15:16.028Z,6.80
2024-01-25T05:17:42.458Z,5.82
2024-01-25T05:20:09.580Z,5.80
2024-01-25T05:22:36.003Z,5.30
2024-01-25T05:25:02.595Z,5.78
2024-01-25T05:27:29.121Z,6.00
2024-01-25T05:29:55.668Z,6.30
2024-01-25T05:32:23.380Z,5.38
2024-01-25T05:34:49.891Z,5.05
2024-01-25T05:37:16.922Z,5.10
2024-01-25T05:39:43.530Z,6.30
2024-01-25T05:42:10.045Z,6.38
2024-01-25T05:44:36.442Z,4.75
2024-01-25T05:47:03.000Z,5.07
2024-01-25T05:49:30.931Z,6.32
2024-01-25T05:51:57.954Z,5.60
2024-01-25T05:54:24.440Z,6.38
2024-01-25T05:56:50.948Z,5.65
2024-01-25T05:59:17.964Z,5.20
2024-01-25T06:01:44.458Z,6.18
2024-01-25T06:04:11.099Z,5.15
2024-01-25T06:06:39.019Z,6.20
2024-01-25T06:09:12.256Z,5.65
2024-01-25T06:11:40.271Z,4.95
2024-01-25T06:14:06.882Z,5.70
2024-01-25T06:16:33.360Z,5.20
2024-01-25T06:18:59.969Z,6.20
2024-01-25T06:21:26.527Z,6.30
2024-01-25T06:23:54.301Z,6.00
2024-01-25T06:26:20.744Z,5.55
2024-01-25T06:28:47.280Z,5.72
2024-01-25T06:31:15.262Z,6.15
2024-01-25T06:33:42.075Z,6.35
2024-01-25T06:36:08.935Z,5.32
2024-01-25T06:38:35.399Z,5.45
2024-01-25T06:41:03.239Z,6.03
2024-01-25T06:43:29.906Z,6.07
2024-01-25T06:45:56.368Z,5.93
2024-01-25T06:48:25.797Z,6.10
2024-01-25T06:50:52.426Z,6.15
2024-01-25T06:53:20.023Z,5.53
2024-01-25T06:55:46.492Z,6.50
2024-01-25T06:58:14.340Z,6.22
2024-01-25T07:00:41.663Z,5.72
2024-01-25T07:03:09.006Z,5.90
2024-01-25T07:05:35.897Z,6.47
2024-01-25T07:08:02.680Z,5.35
2024-01-25T07:10:29.144Z,6.13
2024-01-25T07:12:55.741Z,9.23
2024-01-25T07:15:23.481Z,7.32
2024-01-25T07:17:50.151Z,7.75
2024-01-25T07:20:17.704Z,6.10
2024-01-25T07:22:44.513Z,7.15
2024-01-25T07:25:11.639Z,6.63
2024-01-25T07:27:38.118Z,6.45
2024-01-25T07:30:05.229Z,6.35
2024-01-25T07:32:33.019Z,6.47
2024-01-25T07:34:59.594Z,5.25
2024-01-25T07:37:26.228Z,6.18
2024-01-25T07:39:52.806Z,6.22
2024-01-25T07:42:19.280Z,6.18
2024-01-25T07:44:45.718Z,6.50
2024-01-25T07:47:12.301Z,7.10
2024-01-25T07:49:41.419Z,6.38
2024-01-25T07:52:08.045Z,6.43
2024-01-25T07:54:34.575Z,6.82
2024-01-25T07:57:01.055Z,5.40
2024-01-25T07:59:27.459Z,6.30
2024-01-25T08:01:54.248Z,6.32
2024-01-25T08:04:20.917Z,6.18
2024-01-25T08:06:48.917Z,7.25
2024-01-25T08:09:15.450Z,6.05
2024-01-25T08:11:42.471Z,6.13
2024-01-25T08:14:09.080Z,6.78
2024-01-25T08:16:38.824Z,6.25
2024-01-25T08:19:05.344Z,5.75
2024-01-25T08:21:32.064Z,6.25
2024-01-25T08:23:59.923Z,6.25
2024-01-25T08:26:26.355Z,6.57
2024-01-25T08:28:52.782Z,6.32
2024-01-25T08:31:19.246Z,8.20
2024-01-25T08:33:47.419Z,7.13
2024-01-25T08:36:14.380Z,6.32
2024-01-25T08:38:40.807Z,4.85
2024-01-25T08:41:08.535Z,6.88
2024-01-25T08:43:34.997Z,6.78
2024-01-25T08:46:01.577Z,6.65
2024-01-25T08:48:28.100Z,6.20
2024-01-25T08:50:54.725Z,6.22
2024-01-25T08:53:21.309Z,6.40
2024-01-25T08:55:47.705Z,7.28
2024-01-25T08:58:15.496Z,7.53
2024-01-25T09:00:42.081Z,6.95
2024-01-25T09:03:08.540Z,7.15
2024-01-25T09:05:35.088Z,6.38
2024-01-25T09:08:01.889Z,6.72
2024-01-25T09:10:28.521Z,6.40
2024-01-25T09:12:55.055Z,6.78
2024-01-25T09:15:22.793Z,5.97
2024-01-25T09:17:49.241Z,6.18
2024-01-25T09:20:16.216Z,6.28
2024-01-25T09:22:42.830Z,6.85
2024-01-25T09:25:10.306Z,6.55
2024-01-25T09:27:37.003Z,6.32
2024-01-25T09:30:03.949Z,8.07
2024-01-25T09:32:31.794Z,6.88
2024-01-25T09:34:58.341Z,8.75
2024-01-25T09:37:25.365Z,5.88
2024-01-25T09:39:52.116Z,7.28
2024-01-25T09:42:19.245Z,7.07
2024-01-25T09:44:45.953Z,6.40
2024-01-25T09:47:12.822Z,6.28
2024-01-25T09:49:42.539Z,7.30
2024-01-25T09:52:13.610Z,7.20
2024-01-25T09:54:40.973Z,6.95
2024-01-25T09:57:14.571Z,7.18
2024-01-25T09:59:41.832Z,6.88
2024-01-25T10:02:10.662Z,6.57
2024-01-25T10:04:37.462Z,7.93
2024-01-25T10:07:05.677Z,8.00
2024-01-25T10:09:39.493Z,7.43
2024-01-25T10:14:36.319Z,6.35
2024-01-25T10:17:02.814Z,6.75
2024-01-25T10:19:29.813Z,6.63
2024-01-25T10:21:57.398Z,7.43
2024-01-25T10:24:25.532Z,6.88
2024-01-25T10:26:52.001Z,6.72
2024-01-25T10:29:19.009Z,6.20
2024-01-25T10:31:46.533Z,6.50
2024-01-25T10:34:15.079Z,7.95
2024-01-25T10:36:42.040Z,5.55
2024-01-25T10:39:09.959Z,6.30
2024-01-25T10:41:38.579Z,7.25
2024-01-25T10:44:05.405Z,7.15
2024-01-25T10:46:33.264Z,7.18
2024-01-25T10:49:00.050Z,7.82
2024-01-25T10:51:27.581Z,7.22
2024-01-25T10:53:54.554Z,6.53
2024-01-25T10:56:21.500Z,7.15
2024-01-25T10:58:49.415Z,6.55
2024-01-25T11:01:18.252Z,7.15
2024-01-25T11:03:47.103Z,7.55
2024-01-25T11:06:15.142Z,6.47
2024-01-25T11:08:42.432Z,6.50
2024-01-25T11:11:11.777Z,7.10
2024-01-25T11:13:40.251Z,7.35
2024-01-25T11:16:18.666Z,5.75
2024-01-25T11:18:51.957Z,8.05
2024-01-25T11:21:29.785Z,6.35
2024-01-25T11:24:02.841Z,6.68
2024-01-25T11:26:29.616Z,6.15
2024-01-25T11:28:56.334Z,5.97
2024-01-25T11:31:24.454Z,6.43
2024-01-25T11:33:52.355Z,8.05
2024-01-25T11:36:21.700Z,6.50
2024-01-25T11:38:48.110Z,5.95
2024-01-25T11:41:14.797Z,7.80
2024-01-25T11:43:41.534Z,6.63
2024-01-25T11:46:08.497Z,7.35
2024-01-25T11:48:39.938Z,6.93
2024-01-25T11:51:06.513Z,5.28
2024-01-25T11:53:33.102Z,6.57
2024-01-25T11:55:59.747Z,7.40
2024-01-25T11:58:26.596Z,6.50
2024-01-25T12:00:53.531Z,6.93
2024-01-25T12:03:20.245Z,5.40
2024-01-25T12:05:48.350Z,6.28
2024-01-25T12:08:15.137Z,8.93
2024-01-25T12:10:41.739Z,6.00
2024-01-25T12:13:08.712Z,7.60
2024-01-25T12:15:35.613Z,7.85
2024-01-25T12:18:02.235Z,8.13
2024-01-25T12:20:29.555Z,7.63
2024-01-25T12:22:59.586Z,7.60
2024-01-25T12:25:26.080Z,7.95
2024-01-25T12:27:54.758Z,7.35
2024-01-25T12:30:21.236Z,7.57
2024-01-25T12:32:49.253Z,6.63
2024-01-25T12:35:15.886Z,7.95
2024-01-25T12:37:42.478Z,6.88
2024-01-25T12:40:11.079Z,6.05
2024-01-25T12:42:37.733Z,7.13
2024-01-25T12:45:05.490Z,6.97
2024-01-25T12:47:33.372Z,6.32
2024-01-25T12:49:59.940Z,6.20
2024-01-25T12:52:27.028Z,7.35
2024-01-25T12:54:53.701Z,7.03
2024-01-25T12:57:21.713Z,6.65
2024-01-25T12:59:48.585Z,5.75
2024-01-25T13:02:15.958Z,8.93
2024-01-25T13:04:42.567Z,5.82
2024-01-25T13:07:09.169Z,6.85
2024-01-25T13:09:35.636Z,7.10
2024-01-25T13:12:02.216Z,5.85
2024-01-25T13:14:30.142Z,6.38
2024-01-25T13:16:56.712Z,5.93
2024-01-25T13:19:23.343Z,6.30
2024-01-25T13:21:51.655Z,6.32
2024-01-25T13:24:19.523Z,5.70
2024-01-25T13:26:45.979Z,7.10
2024-01-25T13:29:12.373Z,6.18
2024-01-25T13:31:40.195Z,7.97
2024-01-25T13:34:06.837Z,5.85
2024-01-25T13:36:33.404Z,6.10
2024-01-25T13:38:59.884Z,6.10
2024-01-25T13:41:27.450Z,6.22
2024-01-25T13:43:53.871Z,5.38
2024-01-25T13:46:22.063Z,5.38
2024-01-25T13:48:50.549Z,6.10
2024-01-25T13:51:17.148Z,5.95
2024-01-25T13:53:43.583Z,5.47
2024-01-25T13:56:10.041Z,6.68
2024-01-25T13:58:36.486Z,7.28
2024-01-25T14:01:03.018Z,5.78
2024-01-25T14:03:29.575Z,5.78
2024-01-25T14:05:57.538Z,7.13
2024-01-25T14:08:24.496Z,6.63
2024-01-25T14:10:51.053Z,4.93
2024-01-25T14:13:17.711Z,6.03
2024-01-25T14:15:44.177Z,5.88
2024-01-25T14:18:10.726Z,5.43
2024-01-25T14:20:37.246Z,6.22
2024-01-25T14:23:08.180Z,6.22
2024-01-25T14:25:34.841Z,5.55
2024-01-25T14:28:01.375Z,6.10
2024-01-25T14:30:28.110Z,6.97
2024-01-25T14:32:55.928Z,6.88
2024-01-25T14:35:23.311Z,6.72
2024-01-25T14:37:49.762Z,6.68
2024-01-25T14:40:24.931Z,4.47
2024-01-25T14:43:03.763Z,5.75
2024-01-25T14:45:30.202Z,5.88
2024-01-25T14:47:56.714Z,6.32
2024-01-25T14:50:23.230Z,5.57
2024-01-25T14:52:49.681Z,5.20
2024-01-25T14:55:17.669Z,6.25
2024-01-25T14:57:44.764Z,5.53
2024-01-25T15:00:12.473Z,7.38
2024-01-25T15:02:38.914Z,6.38
2024-01-25T15:05:06.113Z,7.10
2024-01-25T15:07:32.555Z,5.53
2024-01-25T15:10:01.980Z,5.97
2024-01-25T15:12:30.361Z,5.53
2024-01-25T15:14:56.860Z,6.05
2024-01-25T15:17:23.351Z,5.22
2024-01-25T15:19:50.037Z,5.85
2024-01-25T15:22:16.642Z,4.90
2024-01-25T15:24:43.238Z,6.70
2024-01-25T15:27:09.746Z,5.63
2024-01-25T15:29:40.350Z,6.13
2024-01-25T15:32:07.406Z,6.78
2024-01-25T15:34:35.127Z,5.68
2024-01-25T15:37:01.681Z,5.93
2024-01-25T15:39:28.176Z,6.53
2024-01-25T15:41:54.614Z,6.13
2024-01-25T15:44:21.079Z,6.28
2024-01-25T15:46:48.825Z,8.23
2024-01-25T15:49:15.262Z,6.38
2024-01-25T15:51:41.770Z,6.20
2024-01-25T15:54:08.272Z,6.30
2024-01-25T15:56:35.270Z,6.85
2024-01-25T15:59:01.654Z,5.20
2024-01-25T16:01:28.150Z,5.65
2024-01-25T16:03:55.965Z,5.43
2024-01-25T16:06:22.437Z,6.63
2024-01-25T16:08:48.911Z,6.13
2024-01-25T16:11:15.398Z,5.72
2024-01-25T16:13:43.802Z,6.38
2024-01-25T16:16:11.743Z,6.18
2024-01-25T16:18:38.315Z,8.65
2024-01-25T16:21:06.506Z,6.00
2024-01-25T16:23:32.991Z,6.55
2024-01-25T16:25:59.468Z,6.47
2024-01-25T16:28:26.040Z,5.63
2024-01-25T16:30:52.530Z,5.68
2024-01-25T16:33:19.096Z,7.13
2024-01-25T16:35:45.587Z,6.07
2024-01-25T16:38:13.297Z,5.97
2024-01-25T16:40:39.844Z,5.90
2024-01-25T16:43:06.338Z,6.15
2024-01-25T16:45:32.864Z,6.07
2024-01-25T16:47:59.418Z,5.78
2024-01-25T16:50:25.952Z,5.85
2024-01-25T16:52:52.483Z,7.32
2024-01-25T16:55:20.289Z,7.47
2024-01-25T16:57:46.709Z,7.75
2024-01-25T17:00:15.765Z,7.00
2024-01-25T17:02:43.186Z,7.32
2024-01-25T17:05:09.591Z,8.30
2024-01-25T17:07:36.028Z,7.55
2024-01-25T17:10:02.527Z,8.25
2024-01-25T17:12:30.405Z,6.78
2024-01-25T17:14:56.852Z,7.80
2024-01-25T17:17:23.272Z,12.25
2024-01-25T17:19:49.708Z,11.13
2024-01-25T17:22:16.138Z,11.93
2024-01-25T17:24:42.665Z,9.50
2024-01-25T17:27:09.112Z,8.95
2024-01-25T17:29:36.933Z,9.85
2024-01-25T17:32:03.617Z,8.75
2024-01-25T17:34:30.218Z,10.50
2024-01-25T17:36:56.771Z,10.50
2024-01-25T17:39:23.214Z,10.55
2024-01-25T17:41:49.635Z,10.00
2024-01-25T17:44:16.044Z,10.35
2024-01-25T17:46:44.104Z,9.73
2024-01-25T17:49:10.703Z,12.77
2024-01-25T17:51:37.565Z,10.90
2024-01-25T17:54:04.126Z,12.45
2024-01-25T17:56:30.524Z,10.00
2024-01-25T17:58:56.931Z,11.27
2024-01-25T18:01:23.547Z,9.70
2024-01-25T18:03:51.536Z,10.55
2024-01-25T18:06:18.773Z,11.68
2024-01-25T18:08:45.237Z,12.35
2024-01-25T18:11:11.906Z,13.85
2024-01-25T18:13:38.332Z,12.15
2024-01-25T18:16:05.427Z,12.77
2024-01-25T18:18:31.926Z,14.60
2024-01-25T18:20:59.638Z,12.95
2024-01-25T18:23:26.046Z,14.30
2024-01-25T18:25:52.490Z,14.13
2024-01-25T18:28:19.098Z,19.15
2024-01-25T18:30:45.672Z,17.45
2024-01-25T18:33:12.605Z,14.20
2024-01-25T18:35:39.092Z,13.93
2024-01-25T18:38:06.858Z,14.43
2024-01-25T18:40:33.306Z,14.73
2024-01-25T18:42:59.718Z,14.32
2024-01-25T18:45:26.185Z,13.30
2024-01-25T18:47:52.713Z,13.70
2024-01-25T18:50:19.192Z,12.60
2024-01-25T18:52:45.720Z,13.13
2024-01-25T18:55:15.074Z,12.15
2024-01-25T18:57:42.162Z,12.82
2024-01-25T19:00:09.715Z,12.18
2024-01-25T19:02:36.587Z,12.05
2024-01-25T19:05:04.140Z,12.38
2024-01-25T19:07:31.121Z,11.63
2024-01-25T19:09:57.644Z,13.82
2024-01-25T19:12:25.434Z,11.07
2024-01-25T19:14:52.015Z,13.02
2024-01-25T19:17:19.003Z,11.18
2024-01-25T19:19:45.427Z,12.40
2024-01-25T19:22:11.842Z,11.80
2024-01-25T19:24:38.273Z,12.48
2024-01-25T19:27:04.975Z,12.70
2024-01-25T19:29:32.718Z,11.88
2024-01-25T19:31:59.100Z,10.73
2024-01-25T19:34:25.602Z,10.88
2024-01-25T19:36:52.132Z,11.55
2024-01-25T19:39:19.343Z,11.07
2024-01-25T19:41:45.974Z,10.77
2024-01-25T19:44:12.469Z,10.82
2024-01-25T19:46:40.513Z,10.65
2024-01-25T19:49:07.244Z,15.60
2024-01-25T19:51:33.810Z,13.38
2024-01-25T19:54:00.235Z,12.38
2024-01-25T19:56:26.629Z,12.18
2024-01-25T19:58:53.131Z,11.70
2024-01-25T20:01:20.359Z,10.65
2024-01-25T20:03:49.036Z,11.70
2024-01-25T20:06:16.208Z,11.57
2024-01-25T20:08:43.138Z,10.88
2024-01-25T20:11:09.535Z,11.35
2024-01-25T20:13:36.012Z,12.15
2024-01-25T20:16:02.530Z,11.45
2024-01-25T20:18:29.097Z,11.45
2024-01-25T20:20:57.917Z,12.65
2024-01-25T20:23:25.045Z,22.02
2024-01-25T20:25:51.479Z,14.85
2024-01-25T20:28:17.939Z,14.23
2024-01-25T20:30:44.709Z,14.70
2024-01-25T20:33:11.350Z,15.55
2024-01-25T20:35:38.058Z,12.95
2024-01-25T20:38:05.775Z,11.43
2024-01-25T20:40:32.173Z,9.32
2024-01-25T20:42:58.718Z,11.23
2024-01-25T20:45:25.223Z,11.27
2024-01-25T20:47:51.714Z,9.70
2024-01-25T20:50:25.638Z,9.48
2024-01-25T20:52:56.671Z,11.68
2024-01-25T20:55:24.434Z,10.07
2024-01-25T20:57:51.200Z,10.02
2024-01-25T21:00:18.089Z,9.93
2024-01-25T21:02:44.942Z,9.32
2024-01-25T21:05:12.781Z,9.73
2024-01-25T21:07:39.793Z,9.88
2024-01-25T21:10:08.027Z,9.93
2024-01-25T21:12:36.738Z,10.68
2024-01-25T21:15:03.964Z,10.45
2024-01-25T21:17:30.381Z,9.90
2024-01-25T21:19:56.877Z,11.70
2024-01-25T21:22:23.337Z,10.98
2024-01-25T21:24:49.838Z,10.38
2024-01-25T21:27:16.226Z,10.48
2024-01-25T21:29:44.038Z,9.68
2024-01-25T21:32:10.485Z,12.00
2024-01-25T21:34:36.985Z,10.50
2024-01-25T21:37:03.835Z,10.77
2024-01-25T21:39:30.427Z,9.63
2024-01-25T21:41:56.896Z,11.13
2024-01-25T21:44:23.329Z,10.27
2024-01-25T21:46:51.209Z,10.98
2024-01-25T21:49:19.209Z,11.07
2024-01-25T21:51:46.964Z,10.32
2024-01-25T21:54:13.812Z,9.63
2024-01-25T21:56:40.841Z,10.02
2024-01-25T21:59:07.764Z,9.23
2024-01-25T22:01:35.031Z,10.32
2024-01-25T22:04:03.118Z,10.20
2024-01-25T22:06:29.951Z,9.13
2024-01-25T22:08:56.501Z,9.07
2024-01-25T22:11:22.886Z,8.65
2024-01-25T22:13:49.324Z,8.55
2024-01-25T22:16:15.745Z,8.95
2024-01-25T22:18:42.202Z,9.18
2024-01-25T22:21:10.834Z,9.02
2024-01-25T22:23:37.238Z,8.07
2024-01-25T22:26:04.061Z,8.45
2024-01-25T22:28:30.486Z,9.05
2024-01-25T22:30:56.957Z,9.30
2024-01-25T22:33:23.570Z,9.15
2024-01-25T22:35:50.336Z,8.75
2024-01-25T22:38:18.069Z,8.73
2024-01-25T22:40:44.482Z,8.20
2024-01-25T22:43:10.860Z,8.63
2024-01-25T22:45:37.391Z,8.23
2024-01-25T22:48:04.692Z,7.90
2024-01-25T22:50:31.120Z,7.63
2024-01-25T22:52:57.548Z,7.57
2024-01-25T22:55:25.420Z,8.82
2024-01-25T22:57:52.065Z,9.35
2024-01-25T23:00:19.360Z,7.53
2024-01-25T23:02:45.842Z,8.95
2024-01-25T23:05:12.732Z,7.03
2024-01-25T23:07:40.570Z,8.38
2024-01-25T23:10:07.781Z,8.73
2024-01-25T23:12:35.583Z,8.27
2024-01-25T23:15:02.134Z,8.10
2024-01-25T23:17:28.832Z,8.45
2024-01-25T23:19:55.414Z,8.07
2024-01-25T23:22:22.148Z,7.40
2024-01-25T23:24:48.594Z,8.18
2024-01-25T23:27:15.079Z,8.43
2024-01-25T23:29:43.228Z,9.20
2024-01-25T23:32:09.633Z,6.57
2024-01-25T23:34:36.075Z,7.18
2024-01-25T23:37:02.595Z,8.05
2024-01-25T23:39:29.090Z,5.95
2024-01-25T23:41:56.604Z,7.32
2024-01-25T23:44:23.078Z,6.90
2024-01-25T23:46:50.817Z,6.60
2024-01-25T23:49:17.604Z,7.15
2024-01-25T23:51:44.572Z,6.97
2024-01-25T23:54:11.021Z,7.25
2024-01-25T23:56:37.863Z,7.43
2024-01-25T23:59:04.462Z,7.82
